sensor_id;sensor_type;location;lat;lon;timestamp;pressure;altitude;pressure_sealevel;temperature;humidity
15405;BME280;7801;48.124;11.590;2022-12-18T00:01:40;96456.00;;;-2.37;90.80
15405;BME280;7801;48.124;11.590;2022-12-18T00:04:07;96451.69;;;-2.30;90.89
15405;BME280;7801;48.124;11.590;2022-12-18T00:06:39;96447.97;;;-2.21;91.08
15405;BME280;7801;48.124;11.590;2022-12-18T00:09:05;96440.16;;;-1.99;90.42
15405;BME280;7801;48.124;11.590;2022-12-18T00:11:31;96434.66;;;-1.90;90.23
15405;BME280;7801;48.124;11.590;2022-12-18T00:13:59;96434.22;;;-1.93;89.64
15405;BME280;7801;48.124;11.590;2022-12-18T00:16:26;96430.31;;;-2.04;90.14
15405;BME280;7801;48.124;11.590;2022-12-18T00:18:55;96430.66;;;-1.92;89.65
15405;BME280;7801;48.124;11.590;2022-12-18T00:21:23;96433.53;;;-2.02;89.79
15405;BME280;7801;48.124;11.590;2022-12-18T00:23:50;96442.22;;;-2.16;89.97
15405;BME280;7801;48.124;11.590;2022-12-18T00:26:21;96448.59;;;-2.40;90.27
15405;BME280;7801;48.124;11.590;2022-12-18T00:28:47;96430.66;;;-2.14;90.31
15405;BME280;7801;48.124;11.590;2022-12-18T00:31:15;96429.78;;;-1.99;90.01
15405;BME280;7801;48.124;11.590;2022-12-18T00:33:42;96426.75;;;-2.03;89.27
15405;BME280;7801;48.124;11.590;2022-12-18T00:36:11;96443.09;;;-2.30;89.85
15405;BME280;7801;48.124;11.590;2022-12-18T00:38:38;96458.00;;;-2.18;90.05
15405;BME280;7801;48.124;11.590;2022-12-18T00:41:04;96470.88;;;-2.10;90.12
15405;BME280;7801;48.124;11.590;2022-12-18T00:43:30;96475.19;;;-2.17;90.03
15405;BME280;7801;48.124;11.590;2022-12-18T00:45:55;96473.03;;;-2.13;90.34
15405;BME280;7801;48.124;11.590;2022-12-18T00:48:21;96465.16;;;-2.20;90.46
15405;BME280;7801;48.124;11.590;2022-12-18T00:50:50;96469.88;;;-2.30;90.88
15405;BME280;7801;48.124;11.590;2022-12-18T00:53:16;96464.91;;;-2.25;90.81
15405;BME280;7801;48.124;11.590;2022-12-18T00:55:41;96460.84;;;-2.13;90.47
15405;BME280;7801;48.124;11.590;2022-12-18T00:58:08;96460.59;;;-1.96;89.69
15405;BME280;7801;48.124;11.590;2022-12-18T01:00:34;96466.53;;;-2.02;89.64
15405;BME280;7801;48.124;11.590;2022-12-18T01:03:00;96470.97;;;-2.39;90.61
15405;BME280;7801;48.124;11.590;2022-12-18T01:05:25;96466.34;;;-2.01;89.46
15405;BME280;7801;48.124;11.590;2022-12-18T01:07:51;96467.75;;;-1.77;88.43
15405;BME280;7801;48.124;11.590;2022-12-18T01:10:16;96467.22;;;-1.73;87.69
15405;BME280;7801;48.124;11.590;2022-12-18T01:12:41;96481.66;;;-1.91;88.55
15405;BME280;7801;48.124;11.590;2022-12-18T01:15:09;96476.66;;;-1.86;88.42
15405;BME280;7801;48.124;11.590;2022-12-18T01:17:35;96489.38;;;-2.19;89.11
15405;BME280;7801;48.124;11.590;2022-12-18T01:20:00;96485.72;;;-2.03;88.79
15405;BME280;7801;48.124;11.590;2022-12-18T01:22:25;96490.09;;;-2.04;89.08
15405;BME280;7801;48.124;11.590;2022-12-18T01:24:51;96501.94;;;-2.01;88.64
15405;BME280;7801;48.124;11.590;2022-12-18T01:27:16;96502.81;;;-1.73;87.64
15405;BME280;7801;48.124;11.590;2022-12-18T01:29:41;96513.22;;;-1.73;87.31
15405;BME280;7801;48.124;11.590;2022-12-18T01:32:07;96514.06;;;-1.66;86.67
15405;BME280;7801;48.124;11.590;2022-12-18T01:34:33;96520.03;;;-1.72;87.11
15405;BME280;7801;48.124;11.590;2022-12-18T01:37:02;96537.78;;;-1.76;87.24
15405;BME280;7801;48.124;11.590;2022-12-18T01:39:27;96524.50;;;-1.87;87.51
15405;BME280;7801;48.124;11.590;2022-12-18T01:41:53;96526.84;;;-1.92;87.93
15405;BME280;7801;48.124;11.590;2022-12-18T01:47:30;96528.44;;;-2.13;88.77
15405;BME280;7801;48.124;11.590;2022-12-18T01:49:58;96532.44;;;-2.10;88.93
15405;BME280;7801;48.124;11.590;2022-12-18T01:52:28;96533.84;;;-2.29;89.58
15405;BME280;7801;48.124;11.590;2022-12-18T01:54:54;96530.31;;;-2.21;89.59
15405;BME280;7801;48.124;11.590;2022-12-18T01:57:23;96529.47;;;-1.86;88.35
15405;BME280;7801;48.124;11.590;2022-12-18T01:59:51;96532.87;;;-2.07;87.83
15405;BME280;7801;48.124;11.590;2022-12-18T02:02:18;96531.13;;;-2.21;88.81
15405;BME280;7801;48.124;11.590;2022-12-18T02:04:45;96536.69;;;-2.24;89.12
15405;BME280;7801;48.124;11.590;2022-12-18T02:10:03;96531.41;;;-1.94;88.60
15405;BME280;7801;48.124;11.590;2022-12-18T02:12:42;96522.91;;;-2.03;88.61
15405;BME280;7801;48.124;11.590;2022-12-18T02:15:23;96521.91;;;-2.02;88.67
15405;BME280;7801;48.124;11.590;2022-12-18T02:17:57;96515.75;;;-2.01;88.58
15405;BME280;7801;48.124;11.590;2022-12-18T02:20:36;96505.66;;;-2.11;89.16
15405;BME280;7801;48.124;11.590;2022-12-18T02:28:53;96513.69;;;-2.42;90.44
15405;BME280;7801;48.124;11.590;2022-12-18T02:31:24;96523.88;;;-2.25;90.15
15405;BME280;7801;48.124;11.590;2022-12-18T02:33:52;96515.25;;;-2.11;89.58
15405;BME280;7801;48.124;11.590;2022-12-18T02:36:20;96516.84;;;-2.10;89.06
15405;BME280;7801;48.124;11.590;2022-12-18T02:38:47;96522.16;;;-2.18;89.14
15405;BME280;7801;48.124;11.590;2022-12-18T02:41:14;96521.22;;;-2.32;88.52
15405;BME280;7801;48.124;11.590;2022-12-18T02:43:46;96515.00;;;-2.52;89.77
15405;BME280;7801;48.124;11.590;2022-12-18T02:46:37;96506.97;;;-2.36;89.53
15405;BME280;7801;48.124;11.590;2022-12-18T02:52:25;96503.53;;;-2.58;90.43
15405;BME280;7801;48.124;11.590;2022-12-18T02:57:52;96519.38;;;-2.17;89.20
15405;BME280;7801;48.124;11.590;2022-12-18T03:00:22;96520.91;;;-2.22;89.32
15405;BME280;7801;48.124;11.590;2022-12-18T03:02:57;96518.22;;;-1.93;88.20
15405;BME280;7801;48.124;11.590;2022-12-18T03:05:33;96515.84;;;-2.30;89.21
15405;BME280;7801;48.124;11.590;2022-12-18T03:08:05;96518.13;;;-2.21;88.89
15405;BME280;7801;48.124;11.590;2022-12-18T03:10:35;96515.09;;;-2.24;89.41
15405;BME280;7801;48.124;11.590;2022-12-18T03:13:12;96513.97;;;-2.36;89.39
15405;BME280;7801;48.124;11.590;2022-12-18T03:15:42;96512.66;;;-2.26;89.27
15405;BME280;7801;48.124;11.590;2022-12-18T03:18:15;96504.25;;;-2.28;89.49
15405;BME280;7801;48.124;11.590;2022-12-18T03:20:43;96508.34;;;-2.19;89.47
15405;BME280;7801;48.124;11.590;2022-12-18T03:23:13;96495.31;;;-2.04;88.57
15405;BME280;7801;48.124;11.590;2022-12-18T03:25:42;96499.22;;;-2.15;88.88
15405;BME280;7801;48.124;11.590;2022-12-18T03:28:12;96505.66;;;-2.11;88.52
15405;BME280;7801;48.124;11.590;2022-12-18T03:30:40;96511.28;;;-2.43;89.84
15405;BME280;7801;48.124;11.590;2022-12-18T03:33:18;96499.94;;;-2.21;89.52
15405;BME280;7801;48.124;11.590;2022-12-18T03:35:45;96509.59;;;-2.15;88.41
15405;BME280;7801;48.124;11.590;2022-12-18T03:38:11;96505.22;;;-1.93;88.38
15405;BME280;7801;48.124;11.590;2022-12-18T03:40:55;96496.72;;;-1.80;87.67
15405;BME280;7801;48.124;11.590;2022-12-18T03:43:38;96511.97;;;-1.77;87.42
15405;BME280;7801;48.124;11.590;2022-12-18T03:46:33;96507.50;;;-1.62;86.39
15405;BME280;7801;48.124;11.590;2022-12-18T03:49:14;96516.28;;;-1.63;86.26
15405;BME280;7801;48.124;11.590;2022-12-18T03:52:00;96516.47;;;-2.07;87.00
15405;BME280;7801;48.124;11.590;2022-12-18T03:54:28;96521.12;;;-2.02;87.08
15405;BME280;7801;48.124;11.590;2022-12-18T03:56:59;96507.75;;;-1.99;87.79
15405;BME280;7801;48.124;11.590;2022-12-18T03:59:27;96514.66;;;-2.28;88.40
15405;BME280;7801;48.124;11.590;2022-12-18T04:01:54;96512.69;;;-2.04;88.30
15405;BME280;7801;48.124;11.590;2022-12-18T04:04:23;96505.41;;;-1.73;87.05
15405;BME280;7801;48.124;11.590;2022-12-18T04:06:50;96519.47;;;-2.25;87.60
15405;BME280;7801;48.124;11.590;2022-12-18T04:09:16;96518.66;;;-1.89;87.24
15405;BME280;7801;48.124;11.590;2022-12-18T04:11:41;96520.00;;;-2.15;87.96
15405;BME280;7801;48.124;11.590;2022-12-18T04:14:11;96524.47;;;-2.09;88.02
15405;BME280;7801;48.124;11.590;2022-12-18T04:16:37;96518.41;;;-1.94;87.25
15405;BME280;7801;48.124;11.590;2022-12-18T04:19:04;96514.44;;;-2.12;87.85
15405;BME280;7801;48.124;11.590;2022-12-18T04:21:30;96519.03;;;-1.92;87.18
15405;BME280;7801;48.124;11.590;2022-12-18T04:23:56;96527.56;;;-1.98;87.59
15405;BME280;7801;48.124;11.590;2022-12-18T04:26:21;96525.16;;;-2.00;87.24
15405;BME280;7801;48.124;11.590;2022-12-18T04:28:47;96516.88;;;-1.89;86.92
15405;BME280;7801;48.124;11.590;2022-12-18T04:31:12;96527.63;;;-2.13;87.17
15405;BME280;7801;48.124;11.590;2022-12-18T04:33:38;96527.44;;;-2.26;88.19
15405;BME280;7801;48.124;11.590;2022-12-18T04:36:03;96529.50;;;-2.22;87.95
15405;BME280;7801;48.124;11.590;2022-12-18T04:38:29;96536.22;;;-2.13;87.90
15405;BME280;7801;48.124;11.590;2022-12-18T04:40:54;96523.03;;;-2.11;87.61
15405;BME280;7801;48.124;11.590;2022-12-18T04:43:20;96526.44;;;-2.11;87.66
15405;BME280;7801;48.124;11.590;2022-12-18T04:45:46;96533.44;;;-2.11;87.77
15405;BME280;7801;48.124;11.590;2022-12-18T04:48:12;96523.56;;;-2.37;88.80
15405;BME280;7801;48.124;11.590;2022-12-18T04:50:37;96530.97;;;-2.34;88.87
15405;BME280;7801;48.124;11.590;2022-12-18T04:53:02;96537.44;;;-2.45;88.88
15405;BME280;7801;48.124;11.590;2022-12-18T04:55:28;96544.25;;;-2.29;89.06
15405;BME280;7801;48.124;11.590;2022-12-18T04:57:53;96544.62;;;-2.11;88.59
15405;BME280;7801;48.124;11.590;2022-12-18T05:00:19;96542.75;;;-2.17;88.21
15405;BME280;7801;48.124;11.590;2022-12-18T05:02:44;96559.03;;;-2.44;89.01
15405;BME280;7801;48.124;11.590;2022-12-18T05:05:10;96545.81;;;-2.28;88.52
15405;BME280;7801;48.124;11.590;2022-12-18T05:07:35;96543.50;;;-2.23;87.50
15405;BME280;7801;48.124;11.590;2022-12-18T05:10:02;96551.56;;;-2.18;87.81
15405;BME280;7801;48.124;11.590;2022-12-18T05:12:28;96550.03;;;-2.12;87.27
15405;BME280;7801;48.124;11.590;2022-12-18T05:14:53;96553.78;;;-2.15;87.52
15405;BME280;7801;48.124;11.590;2022-12-18T05:17:18;96553.63;;;-2.28;87.24
15405;BME280;7801;48.124;11.590;2022-12-18T05:19:44;96557.41;;;-2.30;87.72
15405;BME280;7801;48.124;11.590;2022-12-18T05:22:10;96562.59;;;-2.30;88.06
15405;BME280;7801;48.124;11.590;2022-12-18T05:24:36;96571.94;;;-2.36;87.54
15405;BME280;7801;48.124;11.590;2022-12-18T05:27:01;96563.41;;;-2.30;87.55
15405;BME280;7801;48.124;11.590;2022-12-18T05:29:27;96559.88;;;-2.22;87.68
15405;BME280;7801;48.124;11.590;2022-12-18T05:31:52;96555.00;;;-2.47;88.21
15405;BME280;7801;48.124;11.590;2022-12-18T05:34:19;96560.44;;;-2.27;87.96
15405;BME280;7801;48.124;11.590;2022-12-18T05:36:46;96561.97;;;-2.32;87.99
15405;BME280;7801;48.124;11.590;2022-12-18T05:39:11;96569.31;;;-2.36;87.56
15405;BME280;7801;48.124;11.590;2022-12-18T05:41:36;96563.31;;;-2.36;87.79
15405;BME280;7801;48.124;11.590;2022-12-18T05:44:02;96563.78;;;-2.33;87.60
15405;BME280;7801;48.124;11.590;2022-12-18T05:46:27;96575.34;;;-2.35;87.70
15405;BME280;7801;48.124;11.590;2022-12-18T05:48:53;96582.00;;;-2.12;87.41
15405;BME280;7801;48.124;11.590;2022-12-18T05:51:21;96565.09;;;-2.22;86.95
15405;BME280;7801;48.124;11.590;2022-12-18T05:53:47;96577.63;;;-2.26;87.05
15405;BME280;7801;48.124;11.590;2022-12-18T05:56:19;96575.91;;;-2.19;87.10
15405;BME280;7801;48.124;11.590;2022-12-18T05:58:45;96572.78;;;-2.14;86.99
15405;BME280;7801;48.124;11.590;2022-12-18T06:01:16;96582.50;;;-2.01;86.15
15405;BME280;7801;48.124;11.590;2022-12-18T06:03:42;96588.06;;;-1.90;85.94
15405;BME280;7801;48.124;11.590;2022-12-18T06:06:23;96583.91;;;-1.84;85.22
15405;BME280;7801;48.124;11.590;2022-12-18T06:08:49;96590.03;;;-1.92;85.87
15405;BME280;7801;48.124;11.590;2022-12-18T06:11:20;96587.25;;;-1.90;85.58
15405;BME280;7801;48.124;11.590;2022-12-18T06:13:45;96584.03;;;-2.07;85.64
15405;BME280;7801;48.124;11.590;2022-12-18T06:16:11;96588.59;;;-2.30;86.34
15405;BME280;7801;48.124;11.590;2022-12-18T06:18:37;96591.28;;;-2.02;86.18
15405;BME280;7801;48.124;11.590;2022-12-18T06:21:04;96588.81;;;-1.75;84.82
15405;BME280;7801;48.124;11.590;2022-12-18T06:23:29;96589.81;;;-2.26;86.07
15405;BME280;7801;48.124;11.590;2022-12-18T06:25:55;96576.50;;;-2.38;86.63
15405;BME280;7801;48.124;11.590;2022-12-18T06:28:20;96588.59;;;-2.45;87.16
15405;BME280;7801;48.124;11.590;2022-12-18T06:30:49;96592.97;;;-2.31;86.96
15405;BME280;7801;48.124;11.590;2022-12-18T06:33:15;96598.31;;;-2.18;86.88
15405;BME280;7801;48.124;11.590;2022-12-18T06:35:41;96594.53;;;-2.00;85.86
15405;BME280;7801;48.124;11.590;2022-12-18T06:38:06;96594.06;;;-2.04;86.15
15405;BME280;7801;48.124;11.590;2022-12-18T06:40:32;96603.78;;;-2.13;85.86
15405;BME280;7801;48.124;11.590;2022-12-18T06:42:58;96608.25;;;-2.07;85.67
15405;BME280;7801;48.124;11.590;2022-12-18T06:45:23;96609.16;;;-2.14;85.37
15405;BME280;7801;48.124;11.590;2022-12-18T06:47:49;96612.97;;;-2.31;86.22
15405;BME280;7801;48.124;11.590;2022-12-18T06:50:16;96607.38;;;-2.28;86.32
15405;BME280;7801;48.124;11.590;2022-12-18T06:52:42;96613.38;;;-2.28;85.86
15405;BME280;7801;48.124;11.590;2022-12-18T06:55:09;96619.66;;;-2.37;86.22
15405;BME280;7801;48.124;11.590;2022-12-18T06:57:36;96616.19;;;-2.29;86.26
15405;BME280;7801;48.124;11.590;2022-12-18T07:00:02;96623.91;;;-2.51;86.60
15405;BME280;7801;48.124;11.590;2022-12-18T07:02:28;96629.69;;;-2.63;86.83
15405;BME280;7801;48.124;11.590;2022-12-18T07:04:53;96633.28;;;-2.64;87.59
15405;BME280;7801;48.124;11.590;2022-12-18T07:07:18;96633.09;;;-2.48;86.62
15405;BME280;7801;48.124;11.590;2022-12-18T07:09:44;96638.56;;;-2.43;86.65
15405;BME280;7801;48.124;11.590;2022-12-18T07:12:09;96644.56;;;-2.57;86.98
15405;BME280;7801;48.124;11.590;2022-12-18T07:14:34;96641.16;;;-2.43;86.32
15405;BME280;7801;48.124;11.590;2022-12-18T07:17:00;96641.69;;;-2.62;86.65
15405;BME280;7801;48.124;11.590;2022-12-18T07:19:26;96645.63;;;-2.66;87.05
15405;BME280;7801;48.124;11.590;2022-12-18T07:21:52;96645.44;;;-2.80;87.62
15405;BME280;7801;48.124;11.590;2022-12-18T07:24:17;96648.50;;;-2.61;87.67
15405;BME280;7801;48.124;11.590;2022-12-18T07:26:45;96658.44;;;-2.65;86.97
15405;BME280;7801;48.124;11.590;2022-12-18T07:29:11;96663.00;;;-2.67;87.02
15405;BME280;7801;48.124;11.590;2022-12-18T07:31:36;96664.25;;;-2.78;87.11
15405;BME280;7801;48.124;11.590;2022-12-18T07:34:01;96666.03;;;-2.78;88.02
15405;BME280;7801;48.124;11.590;2022-12-18T07:36:26;96671.13;;;-2.70;87.10
15405;BME280;7801;48.124;11.590;2022-12-18T07:38:52;96669.94;;;-2.97;88.22
15405;BME280;7801;48.124;11.590;2022-12-18T07:41:18;96664.59;;;-2.81;88.33
15405;BME280;7801;48.124;11.590;2022-12-18T07:43:44;96658.06;;;-2.77;88.04
15405;BME280;7801;48.124;11.590;2022-12-18T07:46:11;96657.28;;;-2.62;87.56
15405;BME280;7801;48.124;11.590;2022-12-18T07:48:39;96646.72;;;-2.31;86.47
15405;BME280;7801;48.124;11.590;2022-12-18T07:51:06;96648.53;;;-2.32;86.48
15405;BME280;7801;48.124;11.590;2022-12-18T07:53:34;96661.13;;;-2.44;86.53
15405;BME280;7801;48.124;11.590;2022-12-18T07:56:04;96651.09;;;-2.47;86.37
15405;BME280;7801;48.124;11.590;2022-12-18T07:58:30;96661.59;;;-2.40;86.54
15405;BME280;7801;48.124;11.590;2022-12-18T08:01:06;96654.97;;;-2.13;85.74
15405;BME280;7801;48.124;11.590;2022-12-18T08:03:31;96660.16;;;-2.28;85.69
15405;BME280;7801;48.124;11.590;2022-12-18T08:06:04;96659.88;;;-2.18;85.12
15405;BME280;7801;48.124;11.590;2022-12-18T08:08:30;96664.00;;;-2.09;84.37
15405;BME280;7801;48.124;11.590;2022-12-18T08:10:56;96665.97;;;-2.26;85.00
15405;BME280;7801;48.124;11.590;2022-12-18T08:13:22;96674.69;;;-2.33;85.34
15405;BME280;7801;48.124;11.590;2022-12-18T08:15:57;96672.16;;;-2.27;84.87
15405;BME280;7801;48.124;11.590;2022-12-18T08:18:23;96680.84;;;-2.05;84.63
15405;BME280;7801;48.124;11.590;2022-12-18T08:20:48;96682.94;;;-2.30;85.19
15405;BME280;7801;48.124;11.590;2022-12-18T08:23:14;96677.97;;;-2.39;84.82
15405;BME280;7801;48.124;11.590;2022-12-18T08:25:39;96685.37;;;-2.66;86.15
15405;BME280;7801;48.124;11.590;2022-12-18T08:28:04;96684.00;;;-2.39;85.46
15405;BME280;7801;48.124;11.590;2022-12-18T08:30:30;96688.66;;;-2.34;85.09
15405;BME280;7801;48.124;11.590;2022-12-18T08:32:55;96688.09;;;-2.00;84.08
15405;BME280;7801;48.124;11.590;2022-12-18T08:35:20;96696.38;;;-2.12;83.59
15405;BME280;7801;48.124;11.590;2022-12-18T08:37:46;96687.22;;;-2.37;85.08
15405;BME280;7801;48.124;11.590;2022-12-18T08:40:12;96686.75;;;-2.55;85.77
15405;BME280;7801;48.124;11.590;2022-12-18T08:42:38;96690.44;;;-2.35;85.09
15405;BME280;7801;48.124;11.590;2022-12-18T08:45:41;96682.62;;;-2.05;83.76
15405;BME280;7801;48.124;11.590;2022-12-18T08:48:07;96688.91;;;-2.44;85.11
15405;BME280;7801;48.124;11.590;2022-12-18T08:50:33;96683.88;;;-2.01;85.83
15405;BME280;7801;48.124;11.590;2022-12-18T08:53:01;96673.88;;;-0.34;100.00
15405;BME280;7801;48.124;11.590;2022-12-18T08:55:30;96684.44;;;1.01;100.00
15405;BME280;7801;48.124;11.590;2022-12-18T08:57:56;96685.59;;;1.71;95.54
15405;BME280;7801;48.124;11.590;2022-12-18T09:00:24;96673.53;;;2.41;92.09
15405;BME280;7801;48.124;11.590;2022-12-18T09:02:52;96667.81;;;2.57;87.55
15405;BME280;7801;48.124;11.590;2022-12-18T09:05:19;96675.06;;;2.55;82.88
15405;BME280;7801;48.124;11.590;2022-12-18T09:07:46;96693.87;;;1.55;68.84
15405;BME280;7801;48.124;11.590;2022-12-18T09:10:14;96696.53;;;0.41;70.87
15405;BME280;7801;48.124;11.590;2022-12-18T09:12:41;96704.75;;;0.04;72.09
15405;BME280;7801;48.124;11.590;2022-12-18T09:15:07;96697.81;;;-0.17;73.77
15405;BME280;7801;48.124;11.590;2022-12-18T09:17:33;96701.97;;;-0.57;75.46
15405;BME280;7801;48.124;11.590;2022-12-18T09:19:59;96707.47;;;-1.16;77.61
15405;BME280;7801;48.124;11.590;2022-12-18T09:22:26;96713.88;;;-1.55;79.68
15405;BME280;7801;48.124;11.590;2022-12-18T09:24:54;96713.16;;;-1.49;79.78
15405;BME280;7801;48.124;11.590;2022-12-18T09:27:20;96704.94;;;-1.31;79.55
15405;BME280;7801;48.124;11.590;2022-12-18T09:29:47;96703.06;;;-1.37;79.53
15405;BME280;7801;48.124;11.590;2022-12-18T09:32:14;96700.56;;;-1.45;80.21
15405;BME280;7801;48.124;11.590;2022-12-18T09:34:42;96694.72;;;-1.98;80.83
15405;BME280;7801;48.124;11.590;2022-12-18T09:37:08;96693.59;;;-2.10;82.72
15405;BME280;7801;48.124;11.590;2022-12-18T09:39:40;96700.37;;;-1.94;85.47
15405;BME280;7801;48.124;11.590;2022-12-18T09:42:17;96697.16;;;-1.46;86.37
15405;BME280;7801;48.124;11.590;2022-12-18T09:44:50;96701.03;;;-1.56;81.44
15405;BME280;7801;48.124;11.590;2022-12-18T09:47:30;96703.06;;;-1.73;81.56
15405;BME280;7801;48.124;11.590;2022-12-18T09:50:06;96694.09;;;-2.00;82.07
15405;BME280;7801;48.124;11.590;2022-12-18T09:52:51;96701.44;;;-2.03;82.07
15405;BME280;7801;48.124;11.590;2022-12-18T09:55:40;96699.69;;;-2.18;82.95
15405;BME280;7801;48.124;11.590;2022-12-18T09:58:41;96692.94;;;-1.97;82.90
15405;BME280;7801;48.124;11.590;2022-12-18T10:01:12;96691.47;;;-1.85;81.98
15405;BME280;7801;48.124;11.590;2022-12-18T10:03:41;96689.09;;;-2.01;82.04
15405;BME280;7801;48.124;11.590;2022-12-18T10:06:35;96689.00;;;-1.93;81.99
15405;BME280;7801;48.124;11.590;2022-12-18T10:11:53;96677.87;;;-1.87;82.46
15405;BME280;7801;48.124;11.590;2022-12-18T10:14:33;96682.25;;;-1.73;81.84
15405;BME280;7801;48.124;11.590;2022-12-18T10:24:08;96664.44;;;-1.55;81.41
15405;BME280;7801;48.124;11.590;2022-12-18T10:26:15;96667.03;;;-1.55;81.25
15405;BME280;7801;48.124;11.590;2022-12-18T10:28:42;96663.91;;;-1.08;78.80
15405;BME280;7801;48.124;11.590;2022-12-18T10:31:21;96664.72;;;-1.07;78.42
15405;BME280;7801;48.124;11.590;2022-12-18T10:33:48;96654.91;;;-1.05;77.85
15405;BME280;7801;48.124;11.590;2022-12-18T10:36:15;96654.94;;;-1.26;78.45
15405;BME280;7801;48.124;11.590;2022-12-18T10:38:42;96654.34;;;-1.22;78.97
15405;BME280;7801;48.124;11.590;2022-12-18T10:44:23;96645.72;;;-1.65;79.33
15405;BME280;7801;48.124;11.590;2022-12-18T10:47:02;96647.22;;;-1.56;80.04
15405;BME280;7801;48.124;11.590;2022-12-18T10:49:50;96645.34;;;-1.62;80.86
15405;BME280;7801;48.124;11.590;2022-12-18T10:52:22;96653.13;;;-1.26;79.44
15405;BME280;7801;48.124;11.590;2022-12-18T10:54:54;96648.03;;;-1.34;78.97
15405;BME280;7801;48.124;11.590;2022-12-18T10:57:38;96645.50;;;-1.27;79.47
15405;BME280;7801;48.124;11.590;2022-12-18T11:00:29;96635.47;;;-1.09;78.45
15405;BME280;7801;48.124;11.590;2022-12-18T11:03:01;96649.13;;;-1.22;78.80
15405;BME280;7801;48.124;11.590;2022-12-18T11:05:32;96648.91;;;-1.27;78.93
15405;BME280;7801;48.124;11.590;2022-12-18T11:08:01;96651.12;;;-1.02;78.60
15405;BME280;7801;48.124;11.590;2022-12-18T11:10:39;96649.47;;;-0.82;77.33
15405;BME280;7801;48.124;11.590;2022-12-18T11:13:27;96656.59;;;-0.70;77.01
15405;BME280;7801;48.124;11.590;2022-12-18T11:15:54;96656.00;;;-0.37;76.26
15405;BME280;7801;48.124;11.590;2022-12-18T11:18:33;96652.16;;;-0.07;74.55
15405;BME280;7801;48.124;11.590;2022-12-18T11:21:07;96654.50;;;-0.25;74.39
15405;BME280;7801;48.124;11.590;2022-12-18T11:23:36;96658.91;;;-0.19;74.79
15405;BME280;7801;48.124;11.590;2022-12-18T11:26:04;96657.91;;;-0.52;75.53
15405;BME280;7801;48.124;11.590;2022-12-18T11:29:08;96663.44;;;-0.34;75.47
15405;BME280;7801;48.124;11.590;2022-12-18T11:31:39;96656.16;;;-0.11;74.50
15405;BME280;7801;48.124;11.590;2022-12-18T11:34:25;96653.31;;;-0.16;74.45
15405;BME280;7801;48.124;11.590;2022-12-18T11:36:53;96660.19;;;-0.08;73.23
15405;BME280;7801;48.124;11.590;2022-12-18T11:39:45;96649.66;;;-0.28;74.37
15405;BME280;7801;48.124;11.590;2022-12-18T11:42:27;96649.38;;;0.02;73.61
15405;BME280;7801;48.124;11.590;2022-12-18T11:45:23;96634.88;;;-0.14;73.92
15405;BME280;7801;48.124;11.590;2022-12-18T11:48:03;96635.62;;;-0.27;75.24
15405;BME280;7801;48.124;11.590;2022-12-18T11:50:56;96636.75;;;-0.36;75.16
15405;BME280;7801;48.124;11.590;2022-12-18T11:53:25;96634.44;;;-0.18;74.20
15405;BME280;7801;48.124;11.590;2022-12-18T12:16:29;96625.50;;;-0.43;75.17
15405;BME280;7801;48.124;11.590;2022-12-18T12:21:58;96634.53;;;-0.05;73.38
15405;BME280;7801;48.124;11.590;2022-12-18T12:28:13;96617.19;;;-0.25;74.20
15405;BME280;7801;48.124;11.590;2022-12-18T12:30:51;96612.22;;;-0.14;74.23
15405;BME280;7801;48.124;11.590;2022-12-18T12:34:05;96599.41;;;-0.09;73.59
15405;BME280;7801;48.124;11.590;2022-12-18T12:39:49;96606.41;;;-0.09;73.71
15405;BME280;7801;48.124;11.590;2022-12-18T12:42:43;96602.44;;;-0.40;74.46
15405;BME280;7801;48.124;11.590;2022-12-18T12:45:37;96600.63;;;-0.05;73.21
15405;BME280;7801;48.124;11.590;2022-12-18T12:48:14;96601.06;;;-0.42;73.42
15405;BME280;7801;48.124;11.590;2022-12-18T12:50:42;96605.38;;;-0.56;74.20
15405;BME280;7801;48.124;11.590;2022-12-18T12:53:24;96602.66;;;-0.41;73.82
15405;BME280;7801;48.124;11.590;2022-12-18T12:55:52;96602.97;;;-0.57;74.99
15405;BME280;7801;48.124;11.590;2022-12-18T13:01:38;96609.16;;;-0.93;76.78
15405;BME280;7801;48.124;11.590;2022-12-18T13:04:53;96612.88;;;-0.74;76.06
15405;BME280;7801;48.124;11.590;2022-12-18T13:07:41;96616.16;;;-0.65;76.63
15405;BME280;7801;48.124;11.590;2022-12-18T13:10:25;96618.03;;;-0.53;75.88
15405;BME280;7801;48.124;11.590;2022-12-18T13:13:01;96609.28;;;-0.39;75.46
15405;BME280;7801;48.124;11.590;2022-12-18T13:15:46;96604.06;;;-0.39;75.22
15405;BME280;7801;48.124;11.590;2022-12-18T13:18:22;96611.63;;;-0.85;76.94
15405;BME280;7801;48.124;11.590;2022-12-18T13:25:53;96628.06;;;-0.78;76.44
15405;BME280;7801;48.124;11.590;2022-12-18T13:34:22;96621.16;;;-0.29;75.16
15405;BME280;7801;48.124;11.590;2022-12-18T13:43:26;96615.28;;;-0.38;75.37
15405;BME280;7801;48.124;11.590;2022-12-18T13:49:41;96621.56;;;-0.60;76.02
15405;BME280;7801;48.124;11.590;2022-12-18T13:52:26;96625.59;;;-0.58;76.92
15405;BME280;7801;48.124;11.590;2022-12-18T13:54:56;96613.16;;;-0.28;75.67
15405;BME280;7801;48.124;11.590;2022-12-18T13:57:34;96615.19;;;-0.23;74.99
15405;BME280;7801;48.124;11.590;2022-12-18T14:00:26;96618.66;;;-0.10;74.65
15405;BME280;7801;48.124;11.590;2022-12-18T14:02:59;96603.63;;;-0.77;77.33
15405;BME280;7801;48.124;11.590;2022-12-18T14:05:36;96608.53;;;-0.67;76.92
15405;BME280;7801;48.124;11.590;2022-12-18T14:08:21;96610.81;;;-0.85;77.23
15405;BME280;7801;48.124;11.590;2022-12-18T14:10:49;96605.62;;;-0.79;77.51
15405;BME280;7801;48.124;11.590;2022-12-18T14:13:37;96604.78;;;-1.14;77.89
15405;BME280;7801;48.124;11.590;2022-12-18T14:16:06;96610.28;;;-1.23;78.93
15405;BME280;7801;48.124;11.590;2022-12-18T14:18:54;96612.28;;;-1.04;78.59
15405;BME280;7801;48.124;11.590;2022-12-18T14:21:28;96621.44;;;-1.08;79.10
15405;BME280;7801;48.124;11.590;2022-12-18T14:24:17;96603.22;;;-0.80;78.32
15405;BME280;7801;48.124;11.590;2022-12-18T14:26:44;96603.88;;;-0.72;77.95
15405;BME280;7801;48.124;11.590;2022-12-18T14:29:30;96612.81;;;-0.81;77.91
15405;BME280;7801;48.124;11.590;2022-12-18T14:32:20;96626.88;;;-1.03;79.32
15405;BME280;7801;48.124;11.590;2022-12-18T14:34:50;96629.41;;;-0.88;78.26
15405;BME280;7801;48.124;11.590;2022-12-18T14:37:21;96630.06;;;-0.80;77.92
15405;BME280;7801;48.124;11.590;2022-12-18T14:39:58;96625.09;;;-0.75;78.08
15405;BME280;7801;48.124;11.590;2022-12-18T14:42:45;96623.34;;;-0.95;78.75
15405;BME280;7801;48.124;11.590;2022-12-18T14:45:44;96617.84;;;-1.07;79.25